Time;durP1;ratioP1;P1;durP2;ratioP2;P2;SDS_P1;SDS_P2;PMS_P1;PMS_P2;Temp;Humidity;BMP_temperature;BMP_pressure;BME280_temperature;BME280_humidity;BME280_pressure;Samples;Min_cycle;Max_cycle;Signal;HPM_P1;HPM_P2
2021/11/04 00:00:46;;;;;;;21.40;11.20;;;;;;;6.59;61.59;99907.00;7974650;28;20033;-66
2021/11/04 00:04:37;;;;;;;24.30;12.38;;;;;;;6.51;61.84;99889.19;7974507;28;20029;-67
2021/11/04 00:08:29;;;;;;;23.27;12.35;;;;;;;6.59;61.61;99904.38;7975697;28;20548;-67
2021/11/04 00:12:19;;;;;;;22.05;11.93;;;;;;;6.58;61.59;99892.28;7975163;28;20034;-67
2021/11/04 00:16:11;;;;;;;25.15;13.25;;;;;;;6.61;61.83;99891.22;7975694;28;20059;-68
2021/11/04 00:20:03;;;;;;;21.52;13.02;;;;;;;6.59;61.63;99889.53;7974270;28;20041;-67
2021/11/04 00:23:55;;;;;;;23.42;12.00;;;;;;;6.63;61.66;99886.75;7977244;28;20900;-68
2021/11/04 00:27:46;;;;;;;20.75;12.48;;;;;;;6.61;61.65;99879.00;7975266;28;20037;-67
2021/11/04 00:31:37;;;;;;;22.77;13.15;;;;;;;6.62;61.70;99879.84;7972561;28;20033;-68
2021/11/04 00:35:28;;;;;;;23.98;13.40;;;;;;;6.56;61.61;99884.53;7974611;28;20044;-66
2021/11/04 00:39:18;;;;;;;22.88;11.98;;;;;;;6.62;61.38;99895.50;7973388;28;20052;-67
2021/11/04 00:43:09;;;;;;;25.58;12.57;;;;;;;6.60;61.75;99879.94;7974847;28;20026;-67
2021/11/04 00:47:00;;;;;;;20.73;11.88;;;;;;;6.61;61.70;99876.41;7974777;28;20513;-67
2021/11/04 00:50:50;;;;;;;22.85;12.10;;;;;;;6.57;61.84;99867.09;7974203;28;20500;-67
2021/11/04 00:54:41;;;;;;;26.00;12.98;;;;;;;6.58;61.43;99871.41;7974339;28;20027;-67
2021/11/04 00:58:31;;;;;;;24.38;14.13;;;;;;;6.56;61.55;99875.84;7974385;28;20749;-68
2021/11/04 01:02:22;;;;;;;22.08;12.95;;;;;;;6.58;61.61;99887.88;7973352;28;20034;-67
2021/11/04 01:06:13;;;;;;;22.27;12.07;;;;;;;6.58;61.28;99894.88;7974233;28;20044;-67
2021/11/04 01:10:05;;;;;;;22.75;12.93;;;;;;;6.57;61.55;99896.66;7973844;28;20508;-67
2021/11/04 01:13:56;;;;;;;23.45;13.65;;;;;;;6.56;61.71;99894.97;7972549;28;20034;-67
2021/11/04 01:17:47;;;;;;;18.92;10.60;;;;;;;6.55;61.60;99890.69;7974058;28;20040;-68
2021/11/04 01:21:39;;;;;;;25.10;12.65;;;;;;;6.55;61.59;99884.66;7973483;28;20758;-67
2021/11/04 01:25:31;;;;;;;21.58;11.40;;;;;;;6.54;61.14;99889.03;7973537;28;20060;-66
2021/11/04 01:29:22;;;;;;;19.63;10.60;;;;;;;6.54;61.49;99888.19;7973374;28;20029;-65
2021/11/04 01:33:13;;;;;;;19.27;10.27;;;;;;;6.53;61.14;99900.38;7966423;28;20249;-67
2021/11/04 01:37:03;;;;;;;23.95;12.52;;;;;;;6.51;61.34;99907.47;7973179;28;20076;-66
2021/11/04 01:40:54;;;;;;;20.10;10.82;;;;;;;6.50;61.14;99915.41;7973306;28;20051;-67
2021/11/04 01:44:45;;;;;;;25.40;12.85;;;;;;;6.49;61.53;99908.50;7977487;28;20052;-66
2021/11/04 01:48:36;;;;;;;26.83;12.93;;;;;;;6.44;61.42;99916.63;7978948;28;20793;-67
2021/11/04 01:52:26;;;;;;;29.10;11.98;;;;;;;6.46;61.27;99917.38;7978483;28;20037;-67
2021/11/04 01:56:18;;;;;;;24.20;12.52;;;;;;;6.43;60.91;99906.28;7978604;28;20033;-67
2021/11/04 02:00:09;;;;;;;26.00;13.32;;;;;;;6.40;61.38;99909.94;7978633;28;20037;-66
2021/11/04 02:04:18;;;;;;;32.92;14.52;;;;;;;6.42;61.49;99912.47;7978727;28;20032;-67
2021/11/04 02:08:17;;;;;;;29.70;14.20;;;;;;;6.42;61.22;99917.69;7970601;28;20037;-66
2021/11/04 02:12:20;;;;;;;31.75;14.43;;;;;;;6.38;61.00;99914.44;7970405;28;20021;-67
2021/11/04 02:16:13;;;;;;;31.85;15.30;;;;;;;6.37;61.24;99907.53;7975138;28;20401;-66
2021/11/04 02:20:04;;;;;;;29.98;14.30;;;;;;;6.38;61.30;99904.00;7978054;28;20028;-67
2021/11/04 02:24:11;;;;;;;28.80;13.93;;;;;;;6.39;61.07;99896.97;7977046;28;20099;-66
2021/11/04 02:28:07;;;;;;;30.42;14.05;;;;;;;6.34;61.13;99886.88;7976699;28;20025;-65
2021/11/04 02:31:58;;;;;;;27.90;13.70;;;;;;;6.37;61.19;99886.66;7977893;28;20030;-65
2021/11/04 02:35:51;;;;;;;27.27;13.90;;;;;;;6.35;61.06;99893.72;7977556;28;20116;-67
2021/11/04 02:39:43;;;;;;;32.03;15.07;;;;;;;6.31;61.36;99883.59;7976240;28;20064;-67
2021/11/04 02:43:35;;;;;;;29.92;14.05;;;;;;;6.33;61.01;99900.84;7977347;28;20406;-65
2021/11/04 02:47:26;;;;;;;28.60;13.80;;;;;;;6.29;61.16;99907.19;7977697;28;20037;-68
2021/11/04 02:51:17;;;;;;;27.45;13.50;;;;;;;6.31;60.95;99920.94;7977072;28;20040;-67
2021/11/04 02:55:07;;;;;;;29.23;13.63;;;;;;;6.29;61.47;99922.00;7976287;28;20033;-67
2021/11/04 02:58:59;;;;;;;28.15;12.30;;;;;;;6.32;61.18;99925.25;7976065;28;20167;-66
2021/11/04 03:02:49;;;;;;;24.75;12.88;;;;;;;6.33;61.12;99936.50;7975832;28;20037;-67
2021/11/04 03:06:40;;;;;;;27.13;13.63;;;;;;;6.32;61.60;99942.66;7976665;28;20025;-67
2021/11/04 03:10:31;;;;;;;29.52;13.13;;;;;;;6.33;61.20;99944.34;7976691;28;20035;-66
2021/11/04 03:14:21;;;;;;;23.67;12.07;;;;;;;6.29;61.50;99935.88;7976397;28;20087;-66
2021/11/04 03:18:13;;;;;;;27.33;11.95;;;;;;;6.26;61.30;99933.47;7976880;28;20098;-67
2021/11/04 03:22:04;;;;;;;21.85;11.75;;;;;;;6.30;61.16;99942.78;7974957;28;20037;-66
2021/11/04 03:25:55;;;;;;;25.45;11.10;;;;;;;6.25;61.08;99929.19;7975385;28;20083;-66
2021/11/04 03:29:48;;;;;;;22.50;11.27;;;;;;;6.21;61.38;99929.47;7976130;28;20037;-68
2021/11/04 03:33:40;;;;;;;22.08;11.27;;;;;;;6.20;61.33;99928.63;7975601;28;20033;-67
2021/11/04 03:37:32;;;;;;;23.02;12.63;;;;;;;6.17;61.05;99926.22;7975591;28;20033;-67
2021/11/04 03:41:23;;;;;;;21.63;11.38;;;;;;;6.21;61.20;99938.13;7975952;28;20414;-67
2021/11/04 03:45:15;;;;;;;21.45;11.57;;;;;;;6.21;61.04;99938.13;7975378;28;20040;-67
2021/11/04 03:49:05;;;;;;;22.63;12.30;;;;;;;6.20;61.11;99933.84;7975315;28;20055;-67
2021/11/04 03:52:56;;;;;;;20.10;10.05;;;;;;;6.21;61.25;99927.69;7975140;28;20033;-66
2021/11/04 03:56:47;;;;;;;26.10;12.90;;;;;;;6.21;61.41;99930.31;7975383;28;20037;-66
2021/11/04 04:00:38;;;;;;;25.20;11.95;;;;;;;6.22;60.88;99931.16;7974677;28;20083;-67
2021/11/04 04:04:29;;;;;;;26.38;13.05;;;;;;;6.20;61.30;99928.63;7974943;28;20037;-67
2021/11/04 04:08:19;;;;;;;32.72;14.18;;;;;;;6.19;61.17;99931.31;7973786;28;20037;-67
2021/11/04 04:12:10;;;;;;;27.10;12.18;;;;;;;6.13;60.94;99929.09;7974964;28;20099;-67
2021/11/04 04:16:00;;;;;;;30.67;13.68;;;;;;;6.15;61.19;99937.66;7973711;28;20028;-68
2021/11/04 04:19:51;;;;;;;28.77;13.63;;;;;;;6.17;61.16;99948.84;7975103;28;20033;-67
2021/11/04 04:23:42;;;;;;;27.20;13.32;;;;;;;6.14;61.31;99938.59;7974202;28;20029;-67
2021/11/04 04:27:33;;;;;;;32.95;14.27;;;;;;;6.12;61.08;99941.31;7974615;28;20448;-67
2021/11/04 04:31:24;;;;;;;33.72;15.82;;;;;;;6.11;60.83;99953.50;7974620;28;20041;-67
2021/11/04 04:35:15;;;;;;;27.23;14.02;;;;;;;6.11;60.81;99963.94;7974260;28;20059;-67
2021/11/04 04:39:05;;;;;;;28.23;14.13;;;;;;;6.11;61.44;99968.31;7973910;28;20037;-66
2021/11/04 04:42:56;;;;;;;32.38;14.90;;;;;;;6.11;61.04;99978.72;7973417;28;20034;-66
2021/11/04 04:46:47;;;;;;;29.15;14.77;;;;;;;6.10;61.14;99979.66;7974301;28;20030;-67
2021/11/04 04:50:39;;;;;;;25.95;14.13;;;;;;;6.14;61.34;99996.78;7974002;28;20029;-68
2021/11/04 04:54:30;;;;;;;24.52;13.18;;;;;;;6.11;61.32;99997.00;7973653;28;20433;-67
2021/11/04 04:58:20;;;;;;;27.10;13.27;;;;;;;6.15;61.35;100001.09;7973919;28;20486;-66
2021/11/04 05:02:11;;;;;;;30.13;14.00;;;;;;;6.15;61.19;100003.69;7974279;28;20033;-66
2021/11/04 05:06:02;;;;;;;23.42;12.18;;;;;;;6.15;61.05;100005.44;7974116;28;20148;-67
2021/11/04 05:09:52;;;;;;;23.60;13.32;;;;;;;6.16;61.41;100002.75;7973786;28;20410;-68
2021/11/04 05:13:43;;;;;;;25.55;13.02;;;;;;;6.14;61.11;100001.19;7974207;28;20601;-66
2021/11/04 05:17:34;;;;;;;24.15;12.77;;;;;;;6.16;61.24;100007.97;7973633;28;20521;-67
2021/11/04 05:21:25;;;;;;;25.20;13.85;;;;;;;6.18;61.42;100015.72;7979912;28;20041;-66
2021/11/04 05:25:16;;;;;;;22.92;12.57;;;;;;;6.15;61.25;100005.44;7979844;28;20429;-67
2021/11/04 05:29:06;;;;;;;22.88;12.57;;;;;;;6.14;61.03;100015.03;7979920;28;20034;-68
2021/11/04 05:32:57;;;;;;;27.83;14.02;;;;;;;6.18;61.44;100018.34;7979655;28;20654;-68
2021/11/04 05:36:48;;;;;;;21.83;11.80;;;;;;;6.19;61.10;100026.03;7979505;28;20041;-67
2021/11/04 05:40:38;;;;;;;26.17;13.85;;;;;;;6.17;61.22;100014.03;7979455;28;20040;-68
2021/11/04 05:44:29;;;;;;;30.25;13.77;;;;;;;6.20;61.26;100027.72;7978262;28;20033;-68
2021/11/04 05:48:19;;;;;;;27.48;14.82;;;;;;;6.20;61.12;100025.13;7979118;28;20041;-67
2021/11/04 05:52:10;;;;;;;28.65;13.15;;;;;;;6.19;61.17;100015.59;7978882;28;20025;-66
2021/11/04 05:56:02;;;;;;;26.48;13.13;;;;;;;6.21;61.11;100023.34;7972018;28;20553;-67
2021/11/04 05:59:54;;;;;;;23.30;12.02;;;;;;;6.19;61.09;100025.19;7977059;28;20505;-66
2021/11/04 06:03:44;;;;;;;23.80;12.98;;;;;;;6.18;61.13;100028.75;7978317;28;20119;-65
2021/11/04 06:07:35;;;;;;;23.55;13.10;;;;;;;6.16;61.34;100030.59;7975839;28;20463;-64
2021/11/04 06:11:25;;;;;;;24.73;12.82;;;;;;;6.11;61.04;100036.09;7968839;28;20022;-66
2021/11/04 06:15:16;;;;;;;24.73;13.23;;;;;;;6.14;60.92;100040.31;7970373;28;20658;-65
2021/11/04 06:19:07;;;;;;;26.42;12.93;;;;;;;6.12;61.30;100037.78;7977631;28;20075;-65
2021/11/04 06:22:57;;;;;;;25.42;12.40;;;;;;;6.07;61.29;100035.44;7977849;28;20155;-65
2021/11/04 06:26:48;;;;;;;23.52;12.38;;;;;;;6.09;61.01;100040.59;7976579;28;20394;-65
2021/11/04 06:30:38;;;;;;;23.05;12.65;;;;;;;6.07;60.92;100032.84;7976570;28;20038;-65
2021/11/04 06:34:29;;;;;;;26.77;13.48;;;;;;;6.04;61.41;100030.44;7977687;28;20033;-65
2021/11/04 06:38:21;;;;;;;26.27;12.60;;;;;;;6.05;61.21;100026.91;7981189;28;20068;-64
2021/11/04 06:42:11;;;;;;;23.70;12.10;;;;;;;6.05;61.25;100029.50;7976609;28;20038;-66
2021/11/04 06:46:03;;;;;;;29.17;15.15;;;;;;;6.08;61.12;100041.50;7977484;28;20031;-65
2021/11/04 06:49:57;;;;;;;25.92;12.80;;;;;;;6.10;60.99;100034.41;7975940;28;20033;-65
2021/11/04 06:53:55;;;;;;;24.65;13.30;;;;;;;6.10;61.04;100035.25;7976965;28;20029;-65
2021/11/04 06:57:50;;;;;;;;;;;;;;;6.02;61.36;100040.09;7976723;28;20148;-65
2021/11/04 07:01:51;;;;;;;24.33;10.98;;;;;;;6.06;61.31;100044.19;7975974;28;19924;-65
2021/11/04 07:05:44;;;;;;;21.15;11.02;;;;;;;6.05;61.48;100046.91;7975601;28;20028;-65
2021/11/04 07:09:39;;;;;;;23.40;11.77;;;;;;;6.01;61.37;100041.06;7975644;28;20061;-65
2021/11/04 07:13:31;;;;;;;19.20;10.13;;;;;;;6.07;61.29;100050.25;7975876;28;20436;-64
2021/11/04 07:17:21;;;;;;;20.30;10.50;;;;;;;6.08;61.35;100051.94;7963589;28;20032;-64
2021/11/04 07:21:16;;;;;;;24.70;11.32;;;;;;;6.07;61.35;100064.13;7968550;28;20045;-65
2021/11/04 07:25:06;;;;;;;22.55;10.43;;;;;;;6.08;61.67;100064.97;7973126;28;20402;-64
2021/11/04 07:28:59;;;;;;;23.77;11.15;;;;;;;6.09;61.56;100069.28;7972882;28;20571;-65
2021/11/04 07:33:01;;;;;;;18.95;10.25;;;;;;;6.10;61.27;100063.09;7973233;28;20865;-65
2021/11/04 07:36:52;;;;;;;23.67;11.27;;;;;;;6.08;61.35;100065.81;7973509;28;20410;-65
2021/11/04 07:40:43;;;;;;;25.70;11.55;;;;;;;6.08;61.35;100072.81;7971981;28;20040;-65
2021/11/04 07:44:35;;;;;;;23.58;10.55;;;;;;;6.09;61.47;100080.53;7972886;28;20041;-65
2021/11/04 07:48:27;;;;;;;24.60;11.95;;;;;;;6.12;61.33;100087.34;7971088;28;20041;-65
2021/11/04 07:52:18;;;;;;;21.80;11.07;;;;;;;6.14;61.26;100089.84;7972636;28;20029;-64
2021/11/04 07:56:11;;;;;;;18.77;9.68;;;;;;;6.17;61.50;100095.72;7972273;28;20601;-64
2021/11/04 08:00:07;;;;;;;17.85;9.85;;;;;;;6.18;61.25;100092.16;7972896;28;20032;-64
2021/11/04 08:03:57;;;;;;;17.70;8.35;;;;;;;6.19;61.42;100101.66;7974291;28;20032;-64
2021/11/04 08:07:48;;;;;;;20.02;10.30;;;;;;;6.19;61.58;100106.03;7973290;28;20029;-64
2021/11/04 08:11:38;;;;;;;23.38;11.40;;;;;;;6.26;61.17;100108.22;7974039;28;20029;-65
2021/11/04 08:15:29;;;;;;;20.25;10.95;;;;;;;6.28;61.48;100111.56;7974230;28;20030;-65
2021/11/04 08:19:20;;;;;;;18.73;10.55;;;;;;;6.31;61.47;100108.75;7971249;28;20502;-65
2021/11/04 08:23:12;;;;;;;20.40;11.82;;;;;;;6.36;61.33;100121.53;7972995;28;20025;-65
2021/11/04 08:27:03;;;;;;;20.75;10.02;;;;;;;6.37;61.67;100121.44;7973649;28;20124;-65
2021/11/04 08:30:53;;;;;;;17.73;9.80;;;;;;;6.37;61.52;100141.47;7973111;28;20074;-65
2021/11/04 08:34:44;;;;;;;20.83;12.02;;;;;;;6.38;61.68;100145.78;7972825;28;20596;-65
2021/11/04 08:38:35;;;;;;;22.27;12.15;;;;;;;6.40;61.53;100163.00;7972902;28;20034;-65
2021/11/04 08:42:25;;;;;;;21.58;12.25;;;;;;;6.40;61.28;100154.31;7972324;28;20080;-65
2021/11/04 08:46:16;;;;;;;19.73;11.77;;;;;;;6.45;61.19;100162.72;7972178;28;20774;-65
2021/11/04 08:50:09;;;;;;;21.90;13.13;;;;;;;6.47;61.21;100169.50;7970825;28;20037;-64
2021/11/04 08:54:00;;;;;;;19.50;11.20;;;;;;;6.49;61.13;100170.28;7975132;28;20028;-64
2021/11/04 08:57:52;;;;;;;19.92;11.50;;;;;;;6.47;61.44;100159.06;7978936;28;20025;-65
2021/11/04 09:01:44;;;;;;;16.60;10.65;;;;;;;6.53;61.29;100168.31;7979431;28;20087;-65
2021/11/04 09:05:38;;;;;;;18.67;11.40;;;;;;;6.53;61.63;100161.34;7978450;28;20087;-64
2021/11/04 09:09:28;;;;;;;16.85;10.20;;;;;;;6.53;61.53;100171.78;7977752;28;20088;-64
2021/11/04 09:13:20;;;;;;;16.92;10.32;;;;;;;6.52;61.62;100170.09;7978332;28;20041;-65
2021/11/04 09:17:11;;;;;;;17.90;10.52;;;;;;;6.54;61.73;100173.47;7977957;28;20024;-65
2021/11/04 09:21:02;;;;;;;19.42;11.27;;;;;;;6.58;61.33;100180.16;7976583;28;20041;-65
2021/11/04 09:24:53;;;;;;;16.25;10.63;;;;;;;6.57;61.73;100178.47;7976427;28;20025;-65
2021/11/04 09:28:44;;;;;;;22.55;11.77;;;;;;;6.64;61.47;100186.75;7978452;28;20124;-66
2021/11/04 09:32:35;;;;;;;20.08;11.82;;;;;;;6.63;61.69;100187.72;7978038;28;20032;-65
2021/11/04 09:36:28;;;;;;;18.67;11.00;;;;;;;6.69;61.89;100189.09;7977215;28;20084;-65
2021/11/04 09:40:20;;;;;;;20.75;11.07;;;;;;;6.67;61.66;100191.81;7976934;28;20045;-66
2021/11/04 09:44:10;;;;;;;19.17;11.95;;;;;;;6.72;61.38;100192.41;7977241;28;20425;-65
2021/11/04 09:48:03;;;;;;;20.20;11.48;;;;;;;6.75;61.63;100196.59;7978213;28;20547;-66
2021/11/04 09:51:55;;;;;;;29.00;13.00;;;;;;;6.71;61.82;100188.09;7976775;28;20045;-64
2021/11/04 09:55:46;;;;;;;25.58;13.57;;;;;;;6.81;62.13;100198.81;7977327;28;20157;-65
2021/11/04 09:59:37;;;;;;;26.38;13.23;;;;;;;6.83;62.18;100210.03;7976853;28;20030;-64
2021/11/04 10:03:33;;;;;;;24.88;13.30;;;;;;;6.88;61.86;100200.16;7977289;28;20079;-64
2021/11/04 10:07:23;;;;;;;25.17;13.32;;;;;;;6.99;62.16;100210.78;7977163;28;20087;-65
2021/11/04 10:11:16;;;;;;;25.73;13.18;;;;;;;7.08;62.31;100207.59;7976362;28;20037;-65
2021/11/04 10:15:14;;;;;;;25.73;12.93;;;;;;;7.15;62.38;100216.72;7976876;28;20042;-63
2021/11/04 10:19:11;;;;;;;23.25;13.85;;;;;;;7.25;62.35;100222.22;7975451;28;20797;-66
2021/11/04 10:23:03;;;;;;;20.45;12.45;;;;;;;7.34;62.63;100227.69;7974941;28;20041;-64
2021/11/04 10:26:55;;;;;;;23.80;13.45;;;;;;;7.39;62.46;100230.88;7976638;28;20060;-65
2021/11/04 10:30:46;;;;;;;21.15;12.68;;;;;;;7.47;62.56;100236.44;7975334;28;20039;-63
2021/11/04 10:34:37;;;;;;;19.27;12.02;;;;;;;7.52;62.69;100237.94;7973066;28;20023;-65
2021/11/04 10:38:40;;;;;;;23.75;13.30;;;;;;;7.55;62.16;100246.41;7976007;28;20040;-65
2021/11/04 10:42:30;;;;;;;24.58;12.55;;;;;;;7.55;62.49;100235.94;7974601;28;20042;-64
2021/11/04 10:46:22;;;;;;;23.73;13.63;;;;;;;7.55;62.22;100242.97;7975929;28;20039;-65
2021/11/04 10:50:39;;;;;;;21.00;13.00;;;;;;;7.52;62.09;100241.38;7970450;28;20417;-65
2021/11/04 10:54:49;;;;;;;17.52;10.60;;;;;;;7.56;62.16;100236.78;7975465;28;20057;-65
2021/11/04 10:58:40;;;;;;;20.08;11.73;;;;;;;7.59;62.30;100234.00;7974594;28;20116;-65
2021/11/04 11:02:31;;;;;;;17.70;10.88;;;;;;;7.63;62.41;100230.25;7972034;28;20050;-64
2021/11/04 11:06:22;;;;;;;21.20;12.45;;;;;;;7.69;62.32;100235.09;7975430;28;20088;-65
2021/11/04 11:10:12;;;;;;;20.80;12.15;;;;;;;7.69;62.55;100227.25;7975546;28;20148;-65
2021/11/04 11:14:03;;;;;;;20.80;11.63;;;;;;;7.76;62.33;100218.06;7972528;28;20694;-66
2021/11/04 11:17:56;;;;;;;20.15;11.25;;;;;;;7.82;62.68;100225.53;7974665;28;20030;-67
2021/11/04 11:21:51;;;;;;;20.77;11.02;;;;;;;7.87;62.61;100218.22;7973112;28;21710;-65
2021/11/04 11:25:42;;;;;;;19.42;11.30;;;;;;;7.94;62.33;100212.50;7974335;28;20083;-65
2021/11/04 11:29:38;;;;;;;19.17;12.32;;;;;;;7.96;62.48;100215.81;7974256;28;20088;-65
2021/11/04 11:33:30;;;;;;;19.73;10.82;;;;;;;8.03;62.50;100211.03;7970842;28;20029;-65
2021/11/04 11:37:24;;;;;;;17.55;11.77;;;;;;;8.13;62.43;100221.75;7973881;28;20180;-65
2021/11/04 11:41:14;;;;;;;22.23;12.63;;;;;;;8.21;62.43;100216.88;7974646;28;20125;-65
2021/11/04 11:45:13;;;;;;;20.33;12.07;;;;;;;8.31;62.50;100215.31;7974295;28;20032;-65
2021/11/04 11:49:12;;;;;;;20.95;12.55;;;;;;;8.37;62.71;100212.31;7970696;28;20602;-64
2021/11/04 11:53:18;;;;;;;20.48;12.73;;;;;;;8.40;62.36;100212.09;7974330;28;20032;-65
2021/11/04 11:57:12;;;;;;;19.98;11.73;;;;;;;8.38;62.53;100212.19;7974288;28;20037;-65
2021/11/04 12:01:11;;;;;;;18.35;10.68;;;;;;;8.44;62.55;100215.31;7973323;28;20060;-65
2021/11/04 12:05:27;;;;;;;20.55;12.00;;;;;;;8.46;62.49;100218.69;7974067;28;20585;-65
2021/11/04 12:09:53;;;;;;;19.35;11.05;;;;;;;8.46;62.71;100222.13;7968550;28;20041;-64
2021/11/04 12:13:47;;;;;;;15.80;10.43;;;;;;;8.50;62.51;100231.44;7875173;28;20037;-64
2021/11/04 12:17:38;;;;;;;17.90;11.82;;;;;;;8.43;62.70;100224.97;7966160;28;20037;-65
2021/11/04 12:21:35;;;;;;;17.17;10.40;;;;;;;8.47;62.41;100226.44;7970515;28;20033;-65
2021/11/04 12:25:28;;;;;;;14.75;9.77;;;;;;;8.42;62.36;100231.13;7973471;28;20052;-65
2021/11/04 12:29:27;;;;;;;18.80;10.82;;;;;;;8.40;62.55;100230.41;7970999;28;20033;-65
2021/11/04 12:33:17;;;;;;;12.75;8.65;;;;;;;8.43;62.68;100237.19;7964955;28;20037;-65
2021/11/04 12:37:14;;;;;;;14.27;9.20;;;;;;;8.51;62.64;100242.75;7972317;28;20037;-64
2021/11/04 12:41:09;;;;;;;14.35;9.30;;;;;;;8.54;62.60;100238.16;7972787;28;20033;-65
2021/11/04 12:45:00;;;;;;;11.70;8.25;;;;;;;8.59;62.65;100248.31;7970626;28;20394;-65
2021/11/04 12:48:57;;;;;;;13.23;7.45;;;;;;;8.62;62.29;100248.13;7971346;28;20540;-65
2021/11/04 12:53:00;;;;;;;12.60;8.75;;;;;;;8.68;62.41;100255.56;7972587;28;20405;-65
2021/11/04 12:56:58;;;;;;;10.85;7.25;;;;;;;8.72;62.56;100270.13;7971144;28;20033;-65
2021/11/04 13:01:00;;;;;;;11.13;6.78;;;;;;;8.71;62.14;100276.28;7971939;28;20045;-64
2021/11/04 13:04:59;;;;;;;9.65;6.47;;;;;;;8.71;62.20;100282.38;7968834;28;20410;-65
2021/11/04 13:09:00;;;;;;;9.45;6.97;;;;;;;8.71;61.99;100289.38;7969365;28;20401;-65
2021/11/04 13:12:54;;;;;;;8.45;5.65;;;;;;;8.70;62.05;100290.34;7972933;28;20022;-65
2021/11/04 13:16:44;;;;;;;9.60;6.50;;;;;;;8.69;62.22;100291.28;7973088;28;20065;-65
2021/11/04 13:20:36;;;;;;;8.90;5.65;;;;;;;8.69;61.99;100297.34;7972650;28;20037;-65
2021/11/04 13:24:27;;;;;;;10.60;6.95;;;;;;;8.67;61.79;100301.84;7971186;28;20076;-65
2021/11/04 13:28:22;;;;;;;8.40;5.95;;;;;;;8.65;62.10;100303.75;7972569;28;20029;-65
2021/11/04 13:32:13;;;;;;;10.85;6.88;;;;;;;8.60;61.85;100310.22;7972152;28;20046;-65
2021/11/04 13:36:07;;;;;;;10.57;7.60;;;;;;;8.57;61.72;100313.88;7972390;28;20044;-65
2021/11/04 13:40:00;;;;;;;10.15;7.15;;;;;;;8.54;61.84;100315.88;7973785;28;20083;-66
2021/11/04 13:43:52;;;;;;;12.27;8.07;;;;;;;8.54;61.89;100315.88;7978333;28;20148;-65
2021/11/04 13:47:44;;;;;;;10.48;7.78;;;;;;;8.55;61.86;100317.53;7976364;28;20482;-66
2021/11/04 13:51:43;;;;;;;12.02;7.93;;;;;;;8.53;61.75;100322.03;7978317;28;20076;-65
2021/11/04 13:55:34;;;;;;;10.63;7.30;;;;;;;8.51;61.79;100323.91;7973777;28;20037;-66
2021/11/04 13:59:40;;;;;;;9.13;6.05;;;;;;;8.47;61.51;100325.06;7976974;28;20021;-65
2021/11/04 14:03:30;;;;;;;9.80;5.60;;;;;;;8.44;61.64;100331.34;7975310;28;20414;-65
2021/11/04 14:07:40;;;;;;;7.90;5.55;;;;;;;8.43;61.80;100337.50;7976257;28;20510;-65
2021/11/04 14:11:30;;;;;;;10.55;5.72;;;;;;;8.42;61.76;100348.91;7976715;28;20045;-65
2021/11/04 14:15:23;;;;;;;7.95;5.75;;;;;;;8.40;61.71;100343.78;7977421;28;20059;-65
2021/11/04 14:19:14;;;;;;;5.35;4.53;;;;;;;8.39;61.62;100355.19;7971705;28;20051;-65
2021/11/04 14:23:05;;;;;;;6.85;5.18;;;;;;;8.37;61.68;100354.47;7976984;28;20379;-65
2021/11/04 14:26:56;;;;;;;6.50;4.78;;;;;;;8.37;61.63;100351.84;7975885;28;20033;-65
2021/11/04 14:30:47;;;;;;;8.50;4.90;;;;;;;8.37;61.36;100359.72;7972098;28;20453;-65
2021/11/04 14:34:37;;;;;;;5.40;4.10;;;;;;;8.37;61.25;100364.94;7976177;28;20578;-65
2021/11/04 14:38:28;;;;;;;11.27;5.68;;;;;;;8.34;61.37;100362.50;7976420;28;20037;-66
2021/11/04 14:42:18;;;;;;;7.97;5.63;;;;;;;8.36;61.38;100370.25;7976037;28;20037;-65
2021/11/04 14:46:09;;;;;;;7.70;4.32;;;;;;;8.33;61.53;100373.09;7974619;28;20033;-65
2021/11/04 14:49:59;;;;;;;8.38;4.15;;;;;;;8.31;61.61;100386.25;7972333;28;20397;-65
2021/11/04 14:53:50;;;;;;;5.55;4.15;;;;;;;8.23;61.31;100377.22;7975628;28;20035;-65
2021/11/04 14:57:41;;;;;;;5.03;3.75;;;;;;;8.24;61.69;100397.22;7976209;28;20049;-65
2021/11/04 15:01:32;;;;;;;5.00;3.70;;;;;;;8.21;61.36;100400.84;7975167;28;20029;-65
2021/11/04 15:05:22;;;;;;;4.38;3.25;;;;;;;8.17;61.63;100396.75;7974024;28;20448;-65
2021/11/04 15:09:13;;;;;;;4.00;3.10;;;;;;;8.16;61.58;100395.09;7973008;28;20048;-65
2021/11/04 15:13:04;;;;;;;11.63;4.07;;;;;;;8.14;61.59;100401.34;7972740;28;20026;-66
2021/11/04 15:16:54;;;;;;;8.02;4.15;;;;;;;8.13;61.36;100404.88;7975577;28;20037;-65
2021/11/04 15:20:45;;;;;;;7.45;3.95;;;;;;;8.18;61.61;100418.53;7973581;28;20107;-65
2021/11/04 15:24:37;;;;;;;6.47;3.33;;;;;;;8.16;61.65;100418.66;7972765;28;20030;-65
2021/11/04 15:28:27;;;;;;;6.47;4.38;;;;;;;8.16;61.53;100423.03;7976138;28;20041;-65
2021/11/04 15:32:19;;;;;;;6.20;3.90;;;;;;;8.18;61.30;100423.75;7974070;28;20179;-65
2021/11/04 15:36:10;;;;;;;7.30;4.43;;;;;;;8.19;61.44;100426.28;7974331;28;20025;-65
2021/11/04 15:40:03;;;;;;;6.07;4.40;;;;;;;8.19;61.23;100421.06;7974514;28;20029;-65
2021/11/04 15:43:54;;;;;;;6.47;4.75;;;;;;;8.19;61.20;100434.16;7973036;28;20070;-65
2021/11/04 15:47:44;;;;;;;9.05;4.65;;;;;;;8.17;61.20;100433.38;7972675;28;20044;-65
2021/11/04 15:51:35;;;;;;;7.97;4.53;;;;;;;8.19;61.21;100449.84;7973752;28;20045;-65
2021/11/04 15:55:25;;;;;;;8.73;5.53;;;;;;;8.17;61.35;100443.84;7973661;28;20041;-65
2021/11/04 15:59:16;;;;;;;7.85;4.90;;;;;;;8.12;61.29;100434.63;7969820;28;20034;-65
2021/11/04 16:03:07;;;;;;;8.55;5.18;;;;;;;8.13;61.06;100441.53;7971559;28;20044;-65
2021/11/04 16:06:58;;;;;;;7.38;4.70;;;;;;;8.15;60.97;100458.81;7973882;28;20025;-65
2021/11/04 16:10:49;;;;;;;7.40;5.20;;;;;;;8.12;61.07;100453.78;7971660;28;20033;-65
2021/11/04 16:14:40;;;;;;;8.35;5.40;;;;;;;8.10;61.05;100458.25;7973749;28;20029;-65
2021/11/04 16:18:30;;;;;;;6.50;4.57;;;;;;;8.07;61.02;100458.44;7966019;28;20090;-66
2021/11/04 16:22:21;;;;;;;7.80;4.88;;;;;;;8.05;61.21;100464.66;7970776;28;20033;-66
2021/11/04 16:26:12;;;;;;;9.45;4.95;;;;;;;8.03;61.11;100472.63;7966678;28;20041;-66
2021/11/04 16:30:04;;;;;;;10.68;5.10;;;;;;;8.02;60.92;100486.63;7970795;28;20025;-66
2021/11/04 16:33:54;;;;;;;12.95;6.50;;;;;;;7.97;61.10;100478.22;7972086;28;20026;-66
2021/11/04 16:37:47;;;;;;;9.45;6.53;;;;;;;8.01;61.12;100489.34;7972799;28;20031;-66
2021/11/04 16:41:37;;;;;;;10.40;6.82;;;;;;;8.00;61.29;100501.59;7972179;28;20040;-66
2021/11/04 16:45:28;;;;;;;13.07;6.63;;;;;;;7.96;61.10;100492.25;7972553;28;20037;-66
2021/11/04 16:49:19;;;;;;;7.82;5.45;;;;;;;8.00;60.97;100506.00;7971569;28;20029;-66
2021/11/04 16:53:10;;;;;;;8.43;5.30;;;;;;;7.98;61.35;100506.06;7971638;28;20032;-66
2021/11/04 16:57:00;;;;;;;8.52;5.82;;;;;;;7.99;61.22;100515.59;7971552;28;20033;-66
2021/11/04 17:00:51;;;;;;;9.23;5.70;;;;;;;7.99;61.24;100518.22;7971403;28;20108;-68
2021/11/04 17:04:41;;;;;;;9.30;6.20;;;;;;;7.94;60.84;100526.34;7970334;28;20103;-65
2021/11/04 17:08:32;;;;;;;8.95;5.60;;;;;;;7.98;60.99;100532.22;7971424;28;20033;-66
2021/11/04 17:12:28;;;;;;;9.13;5.63;;;;;;;7.96;61.31;100545.38;7971375;28;20402;-69
2021/11/04 17:16:19;;;;;;;7.35;5.28;;;;;;;7.95;61.13;100542.88;7977016;28;20033;-65
2021/11/04 17:20:09;;;;;;;9.35;5.97;;;;;;;7.94;61.21;100547.28;7977146;28;20508;-66
2021/11/04 17:24:01;;;;;;;7.80;5.13;;;;;;;7.93;61.26;100549.97;7973912;28;20040;-66
2021/11/04 17:27:51;;;;;;;8.27;4.95;;;;;;;7.93;61.03;100555.19;7978418;28;20030;-68
2021/11/04 17:31:42;;;;;;;7.47;5.25;;;;;;;7.92;61.00;100558.75;7976368;28;20627;-69
2021/11/04 17:35:34;;;;;;;8.90;5.43;;;;;;;7.89;61.06;100566.78;7976675;28;20029;-69
2021/11/04 17:39:25;;;;;;;8.75;5.63;;;;;;;7.88;61.30;100581.63;7976640;28;20061;-69
2021/11/04 17:43:16;;;;;;;7.78;5.28;;;;;;;7.92;61.48;100590.97;7977386;28;20034;-68
2021/11/04 17:47:07;;;;;;;7.88;5.57;;;;;;;7.92;61.45;100598.81;7976754;28;20108;-68
2021/11/04 17:50:58;;;;;;;8.48;4.90;;;;;;;7.88;61.32;100596.47;7976217;28;20624;-68
2021/11/04 17:54:49;;;;;;;9.07;5.40;;;;;;;7.88;61.25;100605.16;7976609;28;20475;-68
2021/11/04 17:58:40;;;;;;;8.40;5.65;;;;;;;7.88;61.35;100605.16;7977156;28;20033;-68